Time;durP1;ratioP1;P1;durP2;ratioP2;P2;SDS_P1;SDS_P2;PMS_P1;PMS_P2;Temp;Humidity;BMP_temperature;BMP_pressure;BME280_temperature;BME280_humidity;BME280_pressure;Samples;Min_cycle;Max_cycle;Signal;HPM_P1;HPM_P2
2022/07/31 00:02:05;;;;;;;3.80;3.50;;;25.60;47.40;;;;;;5013812;28;20236;-85
2022/07/31 00:04:30;;;;;;;3.80;3.53;;;25.40;49.10;;;;;;4993330;28;20700;-84
2022/07/31 00:06:56;;;;;;;4.18;3.65;;;25.00;49.30;;;;;;4982981;28;20212;-84
2022/07/31 00:09:22;;;;;;;3.72;3.50;;;24.90;49.50;;;;;;5006956;28;20241;-84
2022/07/31 00:11:48;;;;;;;3.50;3.30;;;25.00;49.30;;;;;;5015435;28;20229;-84
2022/07/31 00:14:13;;;;;;;3.65;3.30;;;25.00;49.10;;;;;;5008198;28;20190;-85
2022/07/31 00:16:39;;;;;;;3.95;3.65;;;25.10;48.30;;;;;;4989091;28;20193;-84
2022/07/31 00:19:05;;;;;;;4.25;3.90;;;25.10;49.10;;;;;;4997487;28;20223;-84
2022/07/31 00:21:30;;;;;;;3.90;3.60;;;25.00;50.30;;;;;;5014104;28;20194;-83
2022/07/31 00:23:56;;;;;;;3.92;3.60;;;24.90;50.90;;;;;;4994308;28;20198;-84
2022/07/31 00:26:22;;;;;;;4.30;3.80;;;24.70;50.70;;;;;;5017248;28;20189;-84
2022/07/31 00:28:47;;;;;;;3.45;3.25;;;24.60;50.50;;;;;;5019546;28;20217;-84
2022/07/31 00:31:13;;;;;;;4.40;3.85;;;24.60;50.20;;;;;;5008142;28;20194;-84
2022/07/31 00:33:39;;;;;;;3.40;3.20;;;24.60;50.60;;;;;;4997506;28;20194;-84
2022/07/31 00:36:05;;;;;;;4.10;3.80;;;24.60;49.90;;;;;;4984166;28;20190;-84
2022/07/31 00:38:32;;;;;;;5.38;3.78;;;24.70;49.80;;;;;;5011790;28;20218;-84
2022/07/31 00:40:57;;;;;;;4.25;3.95;;;24.80;49.70;;;;;;5011964;28;20684;-84
2022/07/31 00:43:23;;;;;;;4.60;3.70;;;24.80;49.70;;;;;;4992996;28;20194;-83
2022/07/31 00:45:51;;;;;;;3.78;3.58;;;24.70;50.30;;;;;;5010707;28;20229;-84
2022/07/31 00:48:17;;;;;;;3.72;3.53;;;24.50;51.70;;;;;;5015568;28;20265;-84
2022/07/31 00:50:42;;;;;;;3.97;3.67;;;24.20;51.90;;;;;;4978822;28;20214;-84
2022/07/31 00:53:08;;;;;;;4.28;3.97;;;24.00;51.80;;;;;;5000377;28;20205;-84
2022/07/31 00:55:34;;;;;;;4.38;3.97;;;24.00;51.40;;;;;;4993588;28;20189;-85
2022/07/31 00:57:59;;;;;;;4.18;3.88;;;24.00;51.80;;;;;;5014433;28;20210;-84
2022/07/31 01:00:25;;;;;;;3.92;3.63;;;24.00;51.80;;;;;;5000291;28;20224;-84
2022/07/31 01:02:51;;;;;;;3.80;3.50;;;24.10;51.10;;;;;;5013024;28;20755;-84
2022/07/31 01:05:17;;;;;;;4.15;3.80;;;23.80;52.50;;;;;;5014478;28;20216;-84
2022/07/31 01:07:45;;;;;;;3.95;3.65;;;23.40;54.20;;;;;;4999328;28;20233;-85
2022/07/31 01:10:15;;;;;;;4.22;3.92;;;23.30;53.30;;;;;;5008005;28;20213;-84
2022/07/31 01:12:55;;;;;;;4.30;4.00;;;23.30;52.70;;;;;;5006355;28;20190;-85
2022/07/31 01:15:23;;;;;;;3.92;3.60;;;23.50;53.00;;;;;;5014798;28;20188;-84
2022/07/31 01:17:50;;;;;;;4.05;3.63;;;23.60;52.30;;;;;;5011608;28;20194;-83
2022/07/31 01:20:16;;;;;;;4.97;4.05;;;23.60;51.20;;;;;;5011863;28;20189;-83
2022/07/31 01:23:03;;;;;;;4.00;3.78;;;23.50;52.20;;;;;;5007522;28;20340;-84
2022/07/31 01:25:57;;;;;;;4.30;3.90;;;23.30;53.60;;;;;;4994695;28;20747;-84
2022/07/31 01:28:47;;;;;;;4.40;4.00;;;23.40;53.60;;;;;;5006953;28;20293;-84
2022/07/31 01:31:18;;;;;;;4.32;4.00;;;23.20;52.70;;;;;;5010874;28;20196;-84
2022/07/31 01:33:58;;;;;;;3.97;3.65;;;23.30;52.70;;;;;;5017823;28;20198;-83
2022/07/31 01:36:33;;;;;;;3.72;3.40;;;23.40;51.80;;;;;;5017506;28;20267;-85
2022/07/31 01:38:59;;;;;;;4.43;3.78;;;23.40;51.90;;;;;;5009770;28;20209;-83
2022/07/31 01:41:31;;;;;;;4.40;4.03;;;23.40;52.00;;;;;;5011349;28;20186;-83
2022/07/31 01:43:57;;;;;;;3.78;3.58;;;23.40;52.20;;;;;;5014099;28;20193;-83
2022/07/31 01:46:26;;;;;;;4.40;4.10;;;23.40;52.20;;;;;;5008300;28;20534;-84
2022/07/31 01:48:55;;;;;;;4.25;3.95;;;23.50;52.40;;;;;;5008405;28;20217;-85
2022/07/31 01:51:22;;;;;;;3.88;3.63;;;23.40;52.70;;;;;;5021160;28;20179;-84
2022/07/31 01:53:51;;;;;;;4.13;3.83;;;23.30;53.00;;;;;;5020000;28;20277;-84
2022/07/31 01:56:18;;;;;;;4.10;3.70;;;23.20;53.20;;;;;;4999653;28;20747;-85
2022/07/31 01:58:45;;;;;;;4.60;3.60;;;23.30;53.20;;;;;;5007714;28;20210;-84
2022/07/31 02:01:13;;;;;;;4.55;4.15;;;23.40;52.60;;;;;;5021908;28;20569;-84
2022/07/31 02:03:40;;;;;;;4.30;4.00;;;23.40;52.50;;;;;;5014613;28;20205;-84
2022/07/31 02:06:06;;;;;;;4.43;3.92;;;23.40;52.40;;;;;;5009864;28;20533;-84
2022/07/31 02:08:33;;;;;;;6.75;3.88;;;23.20;52.90;;;;;;4995931;28;20278;-83
2022/07/31 02:11:00;;;;;;;4.47;4.13;;;23.20;53.00;;;;;;5012715;28;20570;-83
2022/07/31 02:13:27;;;;;;;4.40;4.03;;;23.10;53.00;;;;;;4997484;28;20704;-83
2022/07/31 02:15:56;;;;;;;4.38;4.07;;;23.10;53.20;;;;;;4975729;28;20196;-84
2022/07/31 02:18:23;;;;;;;4.20;3.90;;;23.10;53.50;;;;;;5019298;28;20213;-83
2022/07/31 02:20:50;;;;;;;4.85;4.45;;;23.00;53.40;;;;;;5031255;28;20201;-81
2022/07/31 02:23:16;;;;;;;4.47;4.13;;;23.10;53.20;;;;;;5025832;28;20562;-84
2022/07/31 02:25:43;;;;;;;5.68;4.28;;;23.00;53.50;;;;;;5003436;28;20210;-83
2022/07/31 02:28:14;;;;;;;6.47;4.38;;;22.80;53.80;;;;;;5014073;28;20343;-82
2022/07/31 02:30:43;;;;;;;4.72;4.22;;;22.90;54.20;;;;;;5015757;28;20209;-83
2022/07/31 02:33:12;;;;;;;4.80;4.30;;;22.80;54.40;;;;;;5014584;28;20186;-83
2022/07/31 02:35:40;;;;;;;4.15;3.75;;;22.60;55.10;;;;;;5015301;28;20249;-82
2022/07/31 02:38:07;;;;;;;4.60;4.30;;;22.60;55.00;;;;;;5024342;28;20210;-83
2022/07/31 02:40:34;;;;;;;6.85;4.70;;;22.60;55.00;;;;;;5027585;28;20244;-82
2022/07/31 02:43:00;;;;;;;4.72;4.32;;;22.60;55.40;;;;;;5019505;28;20192;-82
2022/07/31 02:45:26;;;;;;;5.05;4.55;;;22.60;55.40;;;;;;5005992;28;20198;-83
2022/07/31 02:47:53;;;;;;;4.47;4.10;;;22.60;55.20;;;;;;5015691;28;20249;-83
2022/07/31 02:50:19;;;;;;;4.30;3.90;;;22.60;55.00;;;;;;5016827;28;20237;-83
2022/07/31 02:52:45;;;;;;;4.75;4.40;;;22.70;54.90;;;;;;5015580;28;20240;-83
2022/07/31 02:55:11;;;;;;;4.75;4.40;;;22.50;56.00;;;;;;5034950;28;20237;-84
2022/07/31 02:57:36;;;;;;;4.57;4.18;;;22.10;57.40;;;;;;5023856;28;20243;-83
2022/07/31 03:00:25;;;;;;;4.60;4.30;;;22.00;57.90;;;;;;4994882;28;20182;-83
2022/07/31 03:02:52;;;;;;;4.55;4.05;;;22.00;58.40;;;;;;5015418;28;20557;-83
2022/07/31 03:05:19;;;;;;;4.10;3.80;;;22.00;57.80;;;;;;5014219;28;20186;-83
2022/07/31 03:07:45;;;;;;;4.50;4.20;;;22.10;57.50;;;;;;5015891;28;20210;-83
2022/07/31 03:10:11;;;;;;;5.10;4.60;;;22.20;57.30;;;;;;5024054;28;20300;-83
2022/07/31 03:12:44;;;;;;;4.05;3.80;;;22.10;57.60;;;;;;5005848;28;20201;-83
2022/07/31 03:15:15;;;;;;;5.28;4.00;;;22.10;57.90;;;;;;5024014;28;20178;-83
2022/07/31 03:17:43;;;;;;;4.20;3.90;;;22.10;57.70;;;;;;5023576;28;20236;-82
2022/07/31 03:20:09;;;;;;;6.13;4.30;;;22.10;57.70;;;;;;5016542;28;20253;-83
2022/07/31 03:22:36;;;;;;;4.97;4.47;;;22.10;57.70;;;;;;5018833;28;20244;-83
2022/07/31 03:25:03;;;;;;;4.25;3.95;;;22.10;57.90;;;;;;5014928;28;20265;-82
2022/07/31 03:27:28;;;;;;;4.60;4.30;;;22.10;57.90;;;;;;5019792;28;20208;-82
2022/07/31 03:29:54;;;;;;;4.50;4.20;;;22.00;57.50;;;;;;4988773;28;20724;-83
2022/07/31 03:32:20;;;;;;;4.72;4.18;;;22.10;57.90;;;;;;5017230;28;20185;-83
2022/07/31 03:34:46;;;;;;;4.30;4.00;;;22.20;57.40;;;;;;5008452;28;20194;-83
2022/07/31 03:37:13;;;;;;;4.90;4.38;;;22.20;57.10;;;;;;5010728;28;20206;-83
2022/07/31 03:39:39;;;;;;;4.82;4.43;;;22.10;57.40;;;;;;5014565;28;20244;-83
2022/07/31 03:42:10;;;;;;;4.18;3.88;;;22.10;57.80;;;;;;5014866;28;20589;-82
2022/07/31 03:44:38;;;;;;;4.43;4.03;;;22.10;57.60;;;;;;5003892;28;20269;-82
2022/07/31 03:47:04;;;;;;;5.68;4.00;;;22.10;57.50;;;;;;5012724;28;20191;-83
2022/07/31 03:49:31;;;;;;;4.32;4.03;;;22.10;57.90;;;;;;4997133;28;20239;-82
2022/07/31 03:51:57;;;;;;;4.03;3.78;;;22.00;57.80;;;;;;4995383;28;20265;-82
2022/07/31 03:54:23;;;;;;;4.32;3.97;;;22.10;57.90;;;;;;5029444;28;20208;-83
2022/07/31 03:56:51;;;;;;;5.18;4.40;;;22.10;57.50;;;;;;5013658;28;20874;-82
2022/07/31 03:59:18;;;;;;;4.53;4.00;;;22.00;58.10;;;;;;5019902;28;20194;-83
2022/07/31 04:01:44;;;;;;;5.00;4.07;;;21.90;58.30;;;;;;5004805;28;20245;-83
2022/07/31 04:04:12;;;;;;;4.72;4.32;;;21.80;58.50;;;;;;4995882;28;20193;-83
2022/07/31 04:06:39;;;;;;;8.77;4.60;;;21.90;58.10;;;;;;5008504;28;20273;-82
2022/07/31 04:09:05;;;;;;;5.28;4.03;;;22.00;58.00;;;;;;5007730;28;20657;-82
2022/07/31 04:11:31;;;;;;;4.60;4.20;;;22.10;57.10;;;;;;5003988;28;20190;-82
2022/07/31 04:13:57;;;;;;;4.13;3.70;;;22.10;56.30;;;;;;4994961;28;20181;-83
2022/07/31 04:16:22;;;;;;;7.80;4.10;;;22.30;55.10;;;;;;4992948;28;20190;-83
2022/07/31 04:18:48;;;;;;;5.97;3.63;;;22.40;54.30;;;;;;5019085;28;20758;-83
2022/07/31 04:21:14;;;;;;;4.15;3.85;;;22.50;54.00;;;;;;5007536;28;20194;-83
2022/07/31 04:23:39;;;;;;;4.32;3.70;;;22.50;54.40;;;;;;5011682;28;20256;-83
2022/07/31 04:26:05;;;;;;;4.25;3.90;;;22.50;54.20;;;;;;4999479;28;20194;-81
2022/07/31 04:28:32;;;;;;;4.25;3.88;;;22.50;54.40;;;;;;5013064;28;20213;-82
2022/07/31 04:30:58;;;;;;;4.38;3.95;;;22.50;54.90;;;;;;5011917;28;20218;-82
2022/07/31 04:33:23;;;;;;;7.15;3.90;;;22.50;55.20;;;;;;5006941;28;20200;-83
2022/07/31 04:35:50;;;;;;;5.88;3.60;;;22.30;57.50;;;;;;5003306;28;20194;-82
2022/07/31 04:38:16;;;;;;;5.70;4.32;;;22.20;57.40;;;;;;5004436;28;20217;-83
2022/07/31 04:40:42;;;;;;;5.00;3.85;;;22.10;55.10;;;;;;5004664;28;20276;-82
2022/07/31 04:43:08;;;;;;;6.03;3.88;;;22.10;55.70;;;;;;5015262;28;20182;-83
2022/07/31 04:45:33;;;;;;;3.80;3.47;;;22.10;55.80;;;;;;4994543;28;20209;-82
2022/07/31 04:47:59;;;;;;;4.10;3.63;;;22.10;55.90;;;;;;5016355;28;20213;-82
2022/07/31 04:50:26;;;;;;;3.97;3.70;;;22.30;55.30;;;;;;5011386;28;20217;-82
2022/07/31 04:52:51;;;;;;;3.95;3.65;;;22.30;55.10;;;;;;5005270;28;20224;-82
2022/07/31 04:55:17;;;;;;;3.85;3.55;;;22.30;55.70;;;;;;5010732;28;20654;-81
2022/07/31 04:57:43;;;;;;;4.63;4.13;;;22.40;55.00;;;;;;5012507;28;20229;-82
2022/07/31 05:00:09;;;;;;;4.82;4.32;;;22.40;54.40;;;;;;5012950;28;20219;-83
2022/07/31 05:02:36;;;;;;;5.45;4.15;;;22.30;55.00;;;;;;5006499;28;20187;-83
2022/07/31 05:05:02;;;;;;;3.90;3.53;;;22.30;55.30;;;;;;5008135;28;20228;-83
2022/07/31 05:07:27;;;;;;;4.25;3.85;;;22.30;55.50;;;;;;5008021;28;20213;-82
2022/07/31 05:09:53;;;;;;;5.15;3.80;;;22.30;55.50;;;;;;5009330;28;20268;-82
2022/07/31 05:12:19;;;;;;;4.05;3.58;;;22.20;55.60;;;;;;5025674;28;20190;-81
2022/07/31 05:14:44;;;;;;;4.07;3.78;;;22.20;56.80;;;;;;5008505;28;20193;-83
2022/07/31 05:17:10;;;;;;;4.32;3.85;;;22.20;56.60;;;;;;5016215;28;20210;-83
2022/07/31 05:19:36;;;;;;;4.30;3.88;;;22.30;57.20;;;;;;5007890;28;20216;-81
2022/07/31 05:22:03;;;;;;;4.00;3.58;;;22.20;56.20;;;;;;4996870;28;20196;-83
2022/07/31 05:24:30;;;;;;;4.00;3.72;;;22.30;56.00;;;;;;4998657;28;20255;-83
2022/07/31 05:26:56;;;;;;;3.85;3.65;;;22.00;55.20;;;;;;5014789;28;20194;-83
2022/07/31 05:29:22;;;;;;;3.90;3.60;;;22.10;55.80;;;;;;5012317;28;20213;-83
2022/07/31 05:31:48;;;;;;;3.92;3.63;;;22.00;55.40;;;;;;5005765;28;20241;-83
2022/07/31 05:34:13;;;;;;;3.67;3.38;;;21.90;55.20;;;;;;4996163;28;20186;-82
2022/07/31 05:36:39;;;;;;;4.07;3.78;;;21.90;55.40;;;;;;5004442;28;20241;-83
2022/07/31 05:39:05;;;;;;;3.83;3.63;;;21.90;56.00;;;;;;4991116;28;20218;-83
2022/07/31 05:41:32;;;;;;;4.20;3.80;;;21.70;56.20;;;;;;5008822;28;20177;-82
2022/07/31 05:43:58;;;;;;;4.28;3.88;;;21.70;57.20;;;;;;5010604;28;20228;-82
2022/07/31 05:46:24;;;;;;;4.25;3.85;;;21.70;56.60;;;;;;5013244;28;20189;-82
2022/07/31 05:48:50;;;;;;;4.15;3.90;;;21.70;57.40;;;;;;5011046;28;20205;-83
2022/07/31 05:51:15;;;;;;;4.80;4.30;;;21.80;57.00;;;;;;5003734;28;20214;-83
2022/07/31 05:53:41;;;;;;;6.15;3.75;;;21.60;57.90;;;;;;5021593;28;20268;-83
2022/07/31 05:56:07;;;;;;;5.47;4.05;;;21.60;59.10;;;;;;5018627;28;20189;-83
2022/07/31 05:58:33;;;;;;;4.10;3.80;;;21.70;58.60;;;;;;5013513;28;20216;-82
2022/07/31 06:01:00;;;;;;;4.63;4.30;;;21.70;59.10;;;;;;4995404;28;20293;-83
2022/07/31 06:03:26;;;;;;;4.15;3.90;;;21.80;59.00;;;;;;5019961;28;20235;-82
2022/07/31 06:05:52;;;;;;;4.35;3.95;;;21.80;58.60;;;;;;5019534;28;20181;-82
2022/07/31 06:08:19;;;;;;;4.40;4.00;;;21.80;58.70;;;;;;5014703;28;20204;-82
2022/07/31 06:10:45;;;;;;;4.10;3.80;;;21.80;59.30;;;;;;5020867;28;20840;-83
2022/07/31 06:13:12;;;;;;;4.53;4.13;;;21.90;59.80;;;;;;5014138;28;20181;-83
2022/07/31 06:15:38;;;;;;;4.78;4.00;;;21.90;59.50;;;;;;5015418;28;20681;-82
2022/07/31 06:18:04;;;;;;;4.47;4.18;;;21.90;59.50;;;;;;5013933;28;20214;-83
2022/07/31 06:20:29;;;;;;;4.40;4.00;;;21.80;59.10;;;;;;5019693;28;20565;-83
2022/07/31 06:22:55;;;;;;;4.47;4.10;;;21.90;58.90;;;;;;5001522;28;20244;-83
2022/07/31 06:25:21;;;;;;;4.80;4.40;;;21.90;59.30;;;;;;5016035;28;20228;-83
2022/07/31 06:27:47;;;;;;;4.25;3.85;;;21.90;60.10;;;;;;5002509;28;20218;-83
2022/07/31 06:30:13;;;;;;;4.60;4.22;;;21.80;60.90;;;;;;5017816;28;20576;-82
2022/07/31 06:32:39;;;;;;;4.53;4.03;;;21.70;61.30;;;;;;5015101;28;20196;-83
2022/07/31 06:35:05;;;;;;;4.63;4.32;;;21.60;62.70;;;;;;5009670;28;20188;-83
2022/07/31 06:37:31;;;;;;;4.50;4.20;;;21.60;62.90;;;;;;5022174;28;20745;-82
2022/07/31 06:39:57;;;;;;;5.07;4.28;;;21.70;62.30;;;;;;5014777;28;20209;-82
2022/07/31 06:42:24;;;;;;;4.40;4.10;;;21.60;62.90;;;;;;5008639;28;20748;-81
2022/07/31 06:44:51;;;;;;;4.47;4.05;;;21.70;62.60;;;;;;5018161;28;20680;-82
2022/07/31 06:47:18;;;;;;;4.20;3.90;;;21.70;63.10;;;;;;4996805;28;20223;-83
2022/07/31 06:49:44;;;;;;;4.22;3.92;;;21.80;62.40;;;;;;4997233;28;20705;-83
2022/07/31 06:52:10;;;;;;;4.13;3.83;;;21.90;62.60;;;;;;5021399;28;20205;-83
2022/07/31 06:54:36;;;;;;;4.32;4.03;;;21.90;62.20;;;;;;5014348;28;20755;-83
2022/07/31 06:57:02;;;;;;;4.47;4.10;;;22.00;61.40;;;;;;5001059;28;20198;-82
2022/07/31 06:59:28;;;;;;;4.55;4.25;;;22.20;61.20;;;;;;5018655;28;20197;-82
2022/07/31 07:01:53;;;;;;;4.55;4.15;;;22.10;61.40;;;;;;5017933;28;20244;-83
2022/07/31 07:04:19;;;;;;;4.38;4.07;;;22.20;61.60;;;;;;5014830;28;20193;-83
2022/07/31 07:06:45;;;;;;;4.80;4.40;;;22.30;61.30;;;;;;4998737;28;20203;-83
2022/07/31 07:09:10;;;;;;;4.25;3.95;;;22.60;60.50;;;;;;5011977;28;20210;-83
2022/07/31 07:11:36;;;;;;;4.28;3.97;;;22.70;59.80;;;;;;4989488;28;20196;-83
2022/07/31 07:14:02;;;;;;;5.13;4.50;;;22.80;59.60;;;;;;5012230;28;20637;-83
2022/07/31 07:16:28;;;;;;;4.40;4.10;;;22.90;58.90;;;;;;5015096;28;20183;-82
2022/07/31 07:18:53;;;;;;;4.60;4.30;;;23.10;59.10;;;;;;4988658;28;20281;-83
2022/07/31 07:21:19;;;;;;;4.68;4.28;;;23.30;58.50;;;;;;5017843;28;20556;-83
2022/07/31 07:23:45;;;;;;;5.10;4.05;;;23.30;57.80;;;;;;5016721;28;20197;-83
2022/07/31 07:26:11;;;;;;;5.00;4.50;;;23.30;57.40;;;;;;5002134;28;20194;-83
2022/07/31 07:28:36;;;;;;;4.50;4.10;;;23.30;57.40;;;;;;5011510;28;20238;-83
2022/07/31 07:31:03;;;;;;;7.82;4.47;;;23.30;55.80;;;;;;5014473;28;20217;-82
2022/07/31 07:33:30;;;;;;;4.63;4.22;;;23.60;56.00;;;;;;5017933;28;20215;-82
2022/07/31 07:35:56;;;;;;;4.40;4.00;;;23.60;55.50;;;;;;5009505;28;20190;-82
2022/07/31 07:38:21;;;;;;;4.65;4.28;;;23.30;55.40;;;;;;5018078;28;20209;-82
2022/07/31 07:40:47;;;;;;;5.05;4.32;;;23.30;55.50;;;;;;5017414;28;20217;-83
2022/07/31 07:43:13;;;;;;;4.43;4.03;;;23.50;54.40;;;;;;5019166;28;20190;-82
2022/07/31 07:45:38;;;;;;;4.38;4.07;;;23.70;54.60;;;;;;5013083;28;20697;-82
2022/07/31 07:48:05;;;;;;;4.80;4.40;;;23.90;53.60;;;;;;5010905;28;20553;-82
2022/07/31 07:50:31;;;;;;;4.57;4.18;;;24.00;51.60;;;;;;5007003;28;20217;-83
2022/07/31 07:52:57;;;;;;;4.43;4.13;;;24.30;53.00;;;;;;5021033;28;20232;-83
2022/07/31 07:55:23;;;;;;;4.30;3.97;;;24.30;50.80;;;;;;5023345;28;20197;-83
2022/07/31 07:57:49;;;;;;;4.50;4.10;;;24.40;51.80;;;;;;5011676;28;21260;-81
2022/07/31 08:00:15;;;;;;;4.40;4.10;;;24.50;50.80;;;;;;5026283;28;20178;-80
2022/07/31 08:02:43;;;;;;;4.35;3.75;;;24.60;50.80;;;;;;5036378;28;20284;-81
2022/07/31 08:05:09;;;;;;;4.57;4.18;;;24.70;48.90;;;;;;5026367;28;20207;-81
2022/07/31 08:07:37;;;;;;;4.72;4.05;;;24.80;49.30;;;;;;5022482;28;20227;-82
2022/07/31 08:10:04;;;;;;;4.30;4.00;;;25.00;48.20;;;;;;5024227;28;20213;-84
2022/07/31 08:12:30;;;;;;;3.90;3.60;;;25.10;47.80;;;;;;5021468;28;20188;-82
2022/07/31 08:14:56;;;;;;;4.53;4.20;;;25.20;47.10;;;;;;5020175;28;20191;-83
2022/07/31 08:17:22;;;;;;;3.95;3.53;;;25.40;46.90;;;;;;5018036;28;20214;-82
2022/07/31 08:19:47;;;;;;;4.10;3.80;;;25.60;46.30;;;;;;5025152;28;20196;-83
2022/07/31 08:22:13;;;;;;;7.72;4.25;;;25.70;44.10;;;;;;5014951;28;20285;-82
2022/07/31 08:24:39;;;;;;;3.78;3.50;;;25.80;44.60;;;;;;5016740;28;20229;-83
2022/07/31 08:27:23;;;;;;;4.50;4.10;;;26.00;45.50;;;;;;5016660;28;20188;-83
2022/07/31 08:29:56;;;;;;;4.30;3.88;;;26.10;43.30;;;;;;5003502;28;20217;-83
2022/07/31 08:32:24;;;;;;;4.05;3.83;;;26.20;43.60;;;;;;5017267;28;20193;-83
2022/07/31 08:34:50;;;;;;;7.53;3.85;;;26.40;40.50;;;;;;5014910;28;20192;-83
2022/07/31 08:37:19;;;;;;;5.72;4.03;;;26.50;40.40;;;;;;4982460;28;20210;-84
2022/07/31 08:39:47;;;;;;;4.40;4.10;;;26.50;41.20;;;;;;5020972;28;20202;-83
2022/07/31 08:42:13;;;;;;;4.65;3.90;;;26.70;40.40;;;;;;5011253;28;20185;-82
2022/07/31 08:44:41;;;;;;;4.55;4.20;;;27.10;40.80;;;;;;5014165;28;20192;-82
2022/07/31 08:47:16;;;;;;;4.15;3.92;;;27.00;40.70;;;;;;5023414;28;20691;-84
2022/07/31 08:49:48;;;;;;;5.10;4.15;;;27.00;41.30;;;;;;5018785;28;20220;-84
2022/07/31 08:52:20;;;;;;;4.75;4.28;;;27.20;40.50;;;;;;4991857;28;20202;-84
2022/07/31 08:54:48;;;;;;;4.50;3.80;;;27.40;40.20;;;;;;5016422;28;20186;-84
2022/07/31 08:57:14;;;;;;;4.13;3.67;;;27.20;41.60;;;;;;5020919;28;20241;-83
2022/07/31 08:59:41;;;;;;;6.63;4.03;;;27.40;39.80;;;;;;5020404;28;20190;-82
2022/07/31 09:02:08;;;;;;;5.55;4.22;;;27.70;39.70;;;;;;5001342;28;20217;-83
2022/07/31 09:04:34;;;;;;;4.30;3.97;;;27.80;40.10;;;;;;5018706;28;20258;-84
2022/07/31 09:07:00;;;;;;;4.38;4.07;;;27.90;40.30;;;;;;5017793;28;20717;-84
2022/07/31 09:09:29;;;;;;;4.40;3.40;;;28.10;39.10;;;;;;4998569;28;20290;-83
2022/07/31 09:11:56;;;;;;;4.40;3.95;;;28.10;39.50;;;;;;4995571;28;20193;-83
2022/07/31 09:14:36;;;;;;;4.38;4.03;;;28.40;38.10;;;;;;5016188;28;20245;-84
2022/07/31 09:17:03;;;;;;;4.78;3.85;;;28.50;37.90;;;;;;5012618;28;20217;-83
2022/07/31 09:19:40;;;;;;;4.38;3.97;;;28.60;36.00;;;;;;4995767;28;20261;-84
2022/07/31 09:22:17;;;;;;;6.55;3.78;;;28.80;36.80;;;;;;5011905;28;20189;-84
2022/07/31 09:24:43;;;;;;;3.88;3.65;;;29.00;36.30;;;;;;5012194;28;20177;-84
2022/07/31 09:27:09;;;;;;;4.10;3.78;;;29.10;34.70;;;;;;5019368;28;20189;-84
2022/07/31 09:29:35;;;;;;;4.13;3.83;;;29.20;34.60;;;;;;5022591;28;20247;-84
2022/07/31 09:32:18;;;;;;;5.40;3.67;;;29.30;35.10;;;;;;5012038;28;20187;-84
2022/07/31 09:34:45;;;;;;;7.05;4.03;;;29.40;34.70;;;;;;5003370;28;20189;-84
2022/07/31 09:37:20;;;;;;;4.03;3.63;;;29.50;34.50;;;;;;5012161;28;20217;-84
2022/07/31 09:39:54;;;;;;;4.15;3.70;;;29.60;34.10;;;;;;5017968;28;20188;-84
2022/07/31 09:42:21;;;;;;;4.22;3.72;;;29.90;34.80;;;;;;5004621;28;20197;-84
2022/07/31 09:44:48;;;;;;;3.60;3.40;;;29.80;34.30;;;;;;4994972;28;20260;-84
2022/07/31 09:47:30;;;;;;;4.20;3.90;;;29.70;33.40;;;;;;5019303;28;20841;-84
2022/07/31 09:50:01;;;;;;;4.25;3.85;;;30.10;33.20;;;;;;5019208;28;20220;-84
2022/07/31 09:52:29;;;;;;;3.60;3.40;;;30.10;32.90;;;;;;5013405;28;20202;-84
2022/07/31 09:55:14;;;;;;;7.28;4.07;;;29.70;33.00;;;;;;4998137;28;20194;-84
2022/07/31 09:57:53;;;;;;;4.00;3.70;;;29.60;33.80;;;;;;5007424;28;20239;-83
2022/07/31 10:00:20;;;;;;;4.00;3.80;;;30.00;33.70;;;;;;5012132;28;20281;-84
2022/07/31 10:02:47;;;;;;;4.63;3.85;;;29.90;33.50;;;;;;5012279;28;20529;-84
2022/07/31 10:05:15;;;;;;;5.15;3.90;;;29.90;33.50;;;;;;5019282;28;20192;-83
2022/07/31 10:07:42;;;;;;;4.45;4.05;;;29.90;34.10;;;;;;5016683;28;20205;-84
2022/07/31 10:10:10;;;;;;;3.95;3.70;;;30.10;34.40;;;;;;5020737;28;20236;-84
2022/07/31 10:12:41;;;;;;;4.40;4.10;;;30.10;34.00;;;;;;4991627;28;20294;-84
2022/07/31 10:15:14;;;;;;;4.30;4.00;;;30.20;34.40;;;;;;5009666;28;20189;-84
2022/07/31 10:17:45;;;;;;;4.35;3.60;;;30.00;34.60;;;;;;5012317;28;20639;-84
2022/07/31 10:20:20;;;;;;;5.97;4.20;;;30.10;34.60;;;;;;4989949;28;20194;-85
2022/07/31 10:22:50;;;;;;;4.40;4.00;;;29.90;34.50;;;;;;5018889;28;20197;-85
2022/07/31 10:25:27;;;;;;;4.35;3.95;;;30.00;34.60;;;;;;4992984;28;20206;-84
2022/07/31 10:27:55;;;;;;;3.97;3.75;;;29.70;34.60;;;;;;5006304;28;20235;-84
2022/07/31 10:30:22;;;;;;;4.13;3.83;;;30.30;34.40;;;;;;5008806;28;20312;-84
2022/07/31 10:32:51;;;;;;;4.10;3.78;;;30.60;33.20;;;;;;5013143;28;20750;-85
2022/07/31 10:35:18;;;;;;;4.47;3.97;;;30.50;34.40;;;;;;4997002;28;20190;-85
2022/07/31 10:38:14;;;;;;;3.92;3.72;;;30.70;32.30;;;;;;5004180;28;20213;-85
2022/07/31 10:41:10;;;;;;;4.10;3.80;;;31.20;33.30;;;;;;4998663;28;20186;-86
2022/07/31 10:43:44;;;;;;;4.82;4.30;;;31.40;31.10;;;;;;5013594;28;20420;-85
2022/07/31 10:46:10;;;;;;;4.63;4.18;;;31.40;31.20;;;;;;5009162;28;20184;-84
2022/07/31 10:48:36;;;;;;;4.07;3.88;;;31.50;30.90;;;;;;5018372;28;20229;-86
2022/07/31 10:51:08;;;;;;;4.45;4.05;;;31.50;31.30;;;;;;5030651;28;20261;-85
2022/07/31 10:53:34;;;;;;;8.02;3.95;;;31.50;31.60;;;;;;5038830;28;20188;-86
2022/07/31 10:56:11;;;;;;;4.63;4.22;;;31.80;31.20;;;;;;5017220;28;20185;-84
2022/07/31 10:58:52;;;;;;;4.72;4.18;;;31.80;30.70;;;;;;4995446;28;20209;-85
2022/07/31 11:01:18;;;;;;;4.70;4.30;;;31.90;31.40;;;;;;5005976;28;20196;-85
2022/07/31 11:03:48;;;;;;;4.50;4.15;;;32.10;31.30;;;;;;5020301;28;20273;-86
2022/07/31 11:06:15;;;;;;;4.40;4.10;;;32.30;31.40;;;;;;5021175;28;20185;-85
2022/07/31 11:08:51;;;;;;;4.85;4.50;;;32.50;31.40;;;;;;4997125;28;20222;-85
2022/07/31 11:11:17;;;;;;;5.10;4.70;;;32.50;30.30;;;;;;5005853;28;20197;-85
2022/07/31 11:13:46;;;;;;;5.03;4.53;;;32.30;30.90;;;;;;5012430;28;20212;-85
2022/07/31 11:16:12;;;;;;;4.53;4.22;;;32.30;30.70;;;;;;5019170;28;20601;-85
2022/07/31 11:18:38;;;;;;;5.18;4.63;;;32.40;31.30;;;;;;5013244;28;20202;-85
2022/07/31 11:21:06;;;;;;;11.88;4.63;;;32.50;30.90;;;;;;5013266;28;20264;-85
2022/07/31 11:23:33;;;;;;;5.97;4.50;;;32.60;30.60;;;;;;5012411;28;20206;-86
2022/07/31 11:26:06;;;;;;;4.80;4.40;;;32.50;31.40;;;;;;5009019;28;20190;-86
2022/07/31 11:28:33;;;;;;;5.05;4.35;;;32.60;31.10;;;;;;5016346;28;20206;-85
2022/07/31 11:31:00;;;;;;;4.82;4.53;;;32.80;30.40;;;;;;5013647;28;20271;-87
2022/07/31 11:33:37;;;;;;;5.03;4.47;;;32.70;30.20;;;;;;5000945;28;20193;-85
2022/07/31 11:36:25;;;;;;;5.00;4.70;;;32.80;31.00;;;;;;5015450;28;20189;-86
2022/07/31 11:38:55;;;;;;;5.05;4.55;;;33.40;30.10;;;;;;5016969;28;20214;-86
2022/07/31 11:41:26;;;;;;;4.93;4.63;;;33.60;29.80;;;;;;5022220;28;20185;-85
2022/07/31 11:43:53;;;;;;;5.43;4.95;;;34.00;29.50;;;;;;5022720;28;20185;-85
2022/07/31 11:46:34;;;;;;;5.00;4.70;;;34.40;28.70;;;;;;5014413;28;20283;-85
2022/07/31 11:49:00;;;;;;;5.50;5.20;;;34.50;28.40;;;;;;5012762;28;20201;-87
2022/07/31 11:51:27;;;;;;;7.15;4.85;;;34.70;28.50;;;;;;5012875;28;20209;-86
2022/07/31 11:53:56;;;;;;;4.93;4.60;;;34.50;28.00;;;;;;5014801;28;20186;-85
2022/07/31 11:56:24;;;;;;;5.47;5.03;;;34.70;27.50;;;;;;5016371;28;21030;-85
2022/07/31 11:58:55;;;;;;;5.18;4.88;;;34.80;27.80;;;;;;5016211;28;20210;-86
2022/07/31 12:01:28;;;;;;;4.88;4.57;;;34.40;28.00;;;;;;5012025;28;20281;-86
2022/07/31 12:03:55;;;;;;;5.65;5.20;;;34.40;28.50;;;;;;5012092;28;20193;-86
2022/07/31 12:06:21;;;;;;;5.28;4.88;;;34.00;28.10;;;;;;5011615;28;20189;-86
2022/07/31 12:08:48;;;;;;;4.97;4.57;;;33.80;27.90;;;;;;5012186;28;20300;-86
2022/07/31 12:11:16;;;;;;;5.43;4.35;;;33.80;29.00;;;;;;5002902;28;20217;-86
2022/07/31 12:13:46;;;;;;;5.40;5.10;;;33.70;28.60;;;;;;5004672;28;20212;-87
2022/07/31 12:16:12;;;;;;;5.13;4.78;;;33.80;28.40;;;;;;5001702;28;20183;-87
2022/07/31 12:18:49;;;;;;;5.20;4.70;;;33.90;28.30;;;;;;4991917;28;20212;-88
2022/07/31 12:21:16;;;;;;;5.32;4.95;;;34.50;27.80;;;;;;5015983;28;20260;-86
2022/07/31 12:23:51;;;;;;;4.80;4.50;;;34.80;27.10;;;;;;5011525;28;20238;-85
2022/07/31 12:26:28;;;;;;;5.13;4.72;;;34.80;27.40;;;;;;5004572;28;20728;-85
2022/07/31 12:29:03;;;;;;;4.90;4.40;;;34.60;28.50;;;;;;5004273;28;20288;-85
2022/07/31 12:31:41;;;;;;;6.13;5.50;;;34.30;28.70;;;;;;5013781;28;20894;-86
2022/07/31 12:34:07;;;;;;;5.25;4.72;;;34.40;28.10;;;;;;4993174;28;20207;-87
2022/07/31 12:36:33;;;;;;;6.03;5.43;;;34.00;28.90;;;;;;5013047;28;20394;-87
2022/07/31 12:39:03;;;;;;;5.22;4.82;;;34.40;28.40;;;;;;5011683;28;20228;-86
2022/07/31 12:41:39;;;;;;;4.93;4.53;;;34.20;28.60;;;;;;4992725;28;20189;-86
2022/07/31 12:44:12;;;;;;;4.65;4.35;;;34.20;28.70;;;;;;5008465;28;20186;-85
2022/07/31 12:46:38;;;;;;;4.57;4.28;;;33.90;28.50;;;;;;4983813;28;20664;-85
2022/07/31 12:49:05;;;;;;;5.30;4.90;;;34.10;28.10;;;;;;4992701;28;20217;-85
2022/07/31 12:51:32;;;;;;;4.57;4.28;;;34.40;28.40;;;;;;5018606;28;20198;-86
2022/07/31 12:53:58;;;;;;;4.78;4.47;;;35.00;27.10;;;;;;5005715;28;20191;-85